Campeche, México

9:46 PM CDT en Octubre 24, 2014 (GMT -0500)
Alberto Acuna Ongay | Change Station
CLOSE
Current Station
Aeropuerto
Location: Campeche,
Altura: 16 ft
Estaciones meteorológicas cercanas

Alt 16 ft 19.83 °N, 90.50 °W | Updated 59 minutes ago

Mostly Cloudy
Muy nublado
79 ° F
Sensación térmica 79 ° F
N
18
Viento Variable Viento desde Norte

Hoy
Alta -- | Baja -- ° F
--% Posibilidad de precipitaciones
Ayer
Alta -- | Baja -- ° F
Precip. -- pul
6:59 AM 6:32 PM
Luna nueva, 2% visible
Presión 29.93 pul
Visibilidad 7.0 Millas
Nubes Muy nublado 9000 ft
Punto de rocío 73 ° F
Humedad 83%
Precipitaciones 0.00 pul
Espesor de la nieve No disponible.
UV 0 de una escala de 12
Polen No disponible.
Calidad del aire No disponible.
Flu Activity No disponible.
METAR MMCP 250147Z 36016KT 7SM BKN090 26/23 A2993 RMK 8/070

More Conditions Fewer Conditions

Presión 29.93 pul
Visibilidad 7.0 Millas
Nubes Muy nublado 9000 ft
Punto de rocío 73 ° F
Humedad 83%
Precipitaciones 0.00 pul
Espesor de la nieve No disponible.
UV 0 de una escala de 12
Polen No disponible.
Calidad del aire No disponible.
Flu Activity No disponible.
METAR MMCP 250147Z 36016KT 7SM BKN090 26/23 A2993 RMK 8/070

More Conditions Fewer Conditions

10-Day Weather Forecast

Almanac

Astronomía

Oct. 24, 2014 Salida Puesta
Hora real 6:59 AM CDT 6:32 PM CDT
Crepúsculo civil 6:37 AM CDT 6:54 PM CDT
Crepúsculo náutico 6:11 AM CDT 7:20 PM CDT
Crepúsculo astronómico 5:45 AM CDT 7:46 PM CDT
Luna 7:35 AM CDT (10/24) 7:18 PM CDT (10/24)
Horas de luz 12h 17m
Horas de luz
11h 32m
Tomorrow will be 1m 2s shorter.
Luna nueva, 2% of the Moon is Illuminated
Hoy
Luna nueva
Oct 30
Cuarto creciente
Nov 6
Luna llena
Nov 14
Cuarto menguante
Nov 22
Nueva

Extremos de hoy

Máximos del país Bajas del país

Community

WunderPhotos

Upload Photos

1,764,760 ¡fotos cargadas!

Nearby

Calidad del aire

Not available.

Grosos de nieve

Not available.

Actividad de terremotos

Ciudad Distance Mag. Tiempo y dato
No hay informes recientes de la actividad sísmica.
Magnitud mínima muestra es 2,5.

Temperaturas de aguas costeras

Lugar Temperatura
Sin partes meteorológicos de las estaciones

Estaciones meteorológicas cercanas